Time;durP1;ratioP1;P1;durP2;ratioP2;P2;SDS_P1;SDS_P2;PMS_P1;PMS_P2;Temp;Humidity;BMP_temperature;BMP_pressure;BME280_temperature;BME280_humidity;BME280_pressure;Samples;Min_cycle;Max_cycle;Signal;HPM_P1;HPM_P2
2023/08/16 00:01:22;;;;;;;2.53;1.90;;;14.50;99.90;;;;;;5026157;28;20044;-72
2023/08/16 00:03:47;;;;;;;5.57;2.45;;;14.50;99.90;;;;;;5027079;28;20068;-50
2023/08/16 00:06:14;;;;;;;9.02;2.50;;;14.50;99.90;;;;;;5028740;28;20041;-75
2023/08/16 00:08:40;;;;;;;2.67;2.47;;;14.50;99.90;;;;;;5028748;28;20050;-57
2023/08/16 00:11:07;;;;;;;4.55;2.47;;;14.50;99.90;;;;;;4997633;28;20034;-51
2023/08/16 00:13:34;;;;;;;4.63;2.60;;;14.50;99.90;;;;;;5036634;28;20041;-58
2023/08/16 00:16:02;;;;;;;5.00;2.70;;;14.50;99.90;;;;;;5046342;28;20053;-59
2023/08/16 00:18:29;;;;;;;5.22;2.88;;;14.60;99.90;;;;;;5051283;28;20050;-55
2023/08/16 00:20:55;;;;;;;3.13;2.90;;;14.50;99.90;;;;;;5022054;28;20138;-57
2023/08/16 00:23:21;;;;;;;3.80;2.80;;;14.50;99.90;;;;;;5047421;28;20578;-58
2023/08/16 00:25:47;;;;;;;9.40;3.88;;;14.60;99.90;;;;;;5030153;28;20045;-53
2023/08/16 00:28:12;;;;;;;15.95;3.85;;;14.60;99.90;;;;;;5047731;28;20040;-56
2023/08/16 00:30:38;;;;;;;5.53;3.42;;;14.60;99.90;;;;;;5048877;28;20166;-50
2023/08/16 00:33:04;;;;;;;4.10;3.15;;;14.70;99.90;;;;;;5049076;28;20080;-48
2023/08/16 00:35:30;;;;;;;9.02;3.47;;;14.70;99.90;;;;;;5029530;28;20511;-70
2023/08/16 00:37:58;;;;;;;11.15;3.42;;;14.70;99.90;;;;;;5037494;28;20116;-58
2023/08/16 00:40:24;;;;;;;9.32;3.38;;;14.80;99.90;;;;;;5030663;28;20045;-71
2023/08/16 00:42:50;;;;;;;5.43;3.08;;;14.90;99.90;;;;;;5037720;28;20048;-59
2023/08/16 00:45:16;;;;;;;6.88;3.20;;;14.80;99.90;;;;;;5013619;28;20056;-62
2023/08/16 00:47:44;;;;;;;4.63;2.92;;;14.90;99.90;;;;;;5030127;28;20376;-70
2023/08/16 00:50:10;;;;;;;6.60;3.63;;;14.90;99.90;;;;;;5028735;28;20442;-63
2023/08/16 00:52:36;;;;;;;8.40;3.30;;;14.90;99.90;;;;;;5047989;28;20044;-62
2023/08/16 00:55:03;;;;;;;5.63;3.50;;;14.90;99.90;;;;;;5039703;28;20521;-55
2023/08/16 00:57:30;;;;;;;6.35;3.75;;;15.00;99.90;;;;;;5049599;28;20565;-58
2023/08/16 00:59:56;;;;;;;5.70;3.38;;;15.00;99.90;;;;;;5054353;28;20396;-47
2023/08/16 01:02:23;;;;;;;3.20;3.00;;;15.00;99.90;;;;;;5046379;28;20652;-52
2023/08/16 01:04:49;;;;;;;5.78;3.20;;;15.00;99.90;;;;;;5048185;28;20075;-49
2023/08/16 01:07:15;;;;;;;9.25;3.30;;;15.00;99.90;;;;;;5027780;28;20499;-56
2023/08/16 01:09:41;;;;;;;3.83;2.70;;;15.00;99.90;;;;;;5023383;28;20046;-54
2023/08/16 01:12:41;;;;;;;7.97;3.47;;;15.00;99.90;;;;;;5020248;28;20168;-60
2023/08/16 01:15:32;;;;;;;8.35;3.58;;;15.00;99.90;;;;;;5018078;28;20068;-59
2023/08/16 01:17:59;;;;;;;5.53;3.38;;;15.00;99.90;;;;;;5047506;28;20044;-62
2023/08/16 01:20:26;;;;;;;5.63;3.70;;;15.00;99.90;;;;;;5046811;28;20110;-61
2023/08/16 01:23:06;;;;;;;11.75;3.72;;;15.00;99.90;;;;;;5047577;28;20682;-62
2023/08/16 01:25:41;;;;;;;7.35;3.40;;;15.10;99.90;;;;;;5045536;28;20087;-57
2023/08/16 01:28:07;;;;;;;9.32;3.80;;;15.10;99.90;;;;;;5047155;28;20349;-75
2023/08/16 01:30:33;;;;;;;10.38;3.58;;;15.10;99.90;;;;;;5047231;28;20041;-59
2023/08/16 01:33:10;;;;;;;7.53;3.60;;;15.10;99.90;;;;;;5032402;28;20104;-52
2023/08/16 01:35:36;;;;;;;7.72;3.55;;;15.00;99.90;;;;;;5047207;28;20487;-53
2023/08/16 01:38:03;;;;;;;6.32;3.63;;;15.00;99.90;;;;;;5043716;28;20037;-51
2023/08/16 01:40:37;;;;;;;6.65;3.15;;;14.90;99.90;;;;;;5046623;28;20483;-53
2023/08/16 01:43:06;;;;;;;7.05;3.20;;;14.90;99.90;;;;;;5053021;28;20076;-64
2023/08/16 01:45:33;;;;;;;7.72;3.45;;;14.90;99.90;;;;;;5042797;28;20048;-53
2023/08/16 01:48:00;;;;;;;8.68;3.85;;;14.90;99.90;;;;;;5035995;28;20095;-72
2023/08/16 01:50:26;;;;;;;7.60;3.40;;;14.90;99.90;;;;;;5043068;28;20033;-49
2023/08/16 01:52:52;;;;;;;9.23;3.80;;;15.00;99.90;;;;;;5051152;28;20411;-51
2023/08/16 01:55:17;;;;;;;9.27;3.97;;;15.00;99.90;;;;;;5056451;28;20098;-50
2023/08/16 01:57:43;;;;;;;10.63;3.65;;;15.00;99.90;;;;;;5038587;28;20048;-51
2023/08/16 02:00:09;;;;;;;6.88;2.83;;;15.10;99.90;;;;;;5051870;28;20085;-55
2023/08/16 02:02:37;;;;;;;5.53;3.70;;;15.10;99.90;;;;;;5046734;28;20099;-73
2023/08/16 02:05:03;;;;;;;7.47;3.38;;;15.10;99.90;;;;;;5025039;28;20049;-47
2023/08/16 02:07:29;;;;;;;6.45;3.55;;;15.10;99.90;;;;;;5024996;28;20123;-75
2023/08/16 02:09:54;;;;;;;6.20;3.28;;;15.00;99.90;;;;;;5017461;28;20133;-75
2023/08/16 02:12:20;;;;;;;5.45;2.95;;;15.10;99.90;;;;;;5052612;28;20442;-51
2023/08/16 02:14:46;;;;;;;8.30;3.60;;;15.00;99.90;;;;;;5066167;28;20472;-70
2023/08/16 02:17:11;;;;;;;6.05;3.58;;;15.00;99.90;;;;;;5059941;28;20072;-49
2023/08/16 02:19:37;;;;;;;8.27;3.55;;;15.00;99.90;;;;;;5064973;28;20509;-51
2023/08/16 02:22:03;;;;;;;7.32;3.30;;;15.00;99.90;;;;;;5057020;28;20073;-63
2023/08/16 02:24:29;;;;;;;5.03;2.70;;;15.00;99.90;;;;;;5062351;28;20461;-52
2023/08/16 02:26:55;;;;;;;3.45;2.50;;;14.90;99.90;;;;;;5061720;28;20055;-63
2023/08/16 02:29:20;;;;;;;5.18;2.80;;;14.80;99.90;;;;;;5046421;28;20751;-53
2023/08/16 02:31:46;;;;;;;5.18;2.70;;;14.70;99.90;;;;;;5050235;28;20123;-50
2023/08/16 02:34:12;;;;;;;5.72;3.03;;;14.60;99.90;;;;;;5066030;28;20037;-57
2023/08/16 02:36:37;;;;;;;6.68;2.90;;;14.50;99.90;;;;;;5061569;28;20040;-72
2023/08/16 02:39:05;;;;;;;6.82;2.92;;;14.40;99.90;;;;;;5038286;28;20049;-55
2023/08/16 02:41:31;;;;;;;6.53;3.22;;;14.30;99.90;;;;;;5059150;28;20029;-54
2023/08/16 02:43:57;;;;;;;4.57;3.25;;;14.30;99.90;;;;;;5048370;28;20048;-65
2023/08/16 02:46:23;;;;;;;7.72;2.30;;;14.30;99.90;;;;;;5052042;28;20045;-64
2023/08/16 02:48:49;;;;;;;7.20;3.00;;;14.10;99.90;;;;;;5061272;28;20470;-69
2023/08/16 02:51:14;;;;;;;4.22;2.75;;;14.10;99.90;;;;;;5059728;28;20080;-79
2023/08/16 02:53:40;;;;;;;7.68;2.78;;;14.00;99.90;;;;;;5063767;28;20410;-68
2023/08/16 02:56:06;;;;;;;4.22;2.92;;;14.00;99.90;;;;;;5065652;28;20033;-60
2023/08/16 02:58:31;;;;;;;3.95;3.00;;;13.90;99.90;;;;;;5051587;28;20038;-59
2023/08/16 03:00:57;;;;;;;3.20;2.38;;;13.90;99.90;;;;;;5066220;28;20052;-72
2023/08/16 03:03:23;;;;;;;5.72;2.63;;;13.90;99.90;;;;;;5059438;28;20048;-64
2023/08/16 03:05:49;;;;;;;3.53;3.17;;;13.80;99.90;;;;;;5066640;28;20045;-54
2023/08/16 03:08:15;;;;;;;6.03;2.80;;;13.80;99.90;;;;;;5057841;28;20512;-62
2023/08/16 03:10:40;;;;;;;6.82;3.25;;;13.70;99.90;;;;;;5038808;28;20038;-61
2023/08/16 03:13:06;;;;;;;9.20;3.28;;;13.70;99.90;;;;;;5048628;28;20487;-75
2023/08/16 03:15:33;;;;;;;7.25;3.20;;;13.70;99.90;;;;;;5032391;28;20049;-73
2023/08/16 03:17:59;;;;;;;6.53;2.80;;;13.60;99.90;;;;;;5048403;28;20664;-55
2023/08/16 03:20:24;;;;;;;8.20;3.70;;;13.70;99.90;;;;;;5049950;28;20059;-58
2023/08/16 03:22:50;;;;;;;7.70;2.78;;;13.60;99.90;;;;;;5033975;28;20486;-71
2023/08/16 03:25:16;;;;;;;4.13;3.17;;;13.60;99.90;;;;;;5030378;28;20487;-55
2023/08/16 03:27:42;;;;;;;4.10;2.80;;;13.60;99.90;;;;;;5031662;28;20085;-57
2023/08/16 03:30:08;;;;;;;5.95;2.95;;;13.60;99.90;;;;;;5048657;28;20162;-60
2023/08/16 03:32:34;;;;;;;3.22;2.80;;;13.60;99.90;;;;;;5019518;28;20072;-53
2023/08/16 03:34:59;;;;;;;3.17;2.28;;;13.50;99.90;;;;;;5046689;28;20096;-58
2023/08/16 03:37:25;;;;;;;3.70;2.53;;;13.50;99.90;;;;;;5015073;28;20510;-52
2023/08/16 03:39:52;;;;;;;4.60;3.30;;;13.50;99.90;;;;;;5034261;28;20049;-52
2023/08/16 03:42:17;;;;;;;6.70;2.63;;;13.40;99.90;;;;;;5048971;28;20044;-61
2023/08/16 03:44:43;;;;;;;2.65;2.45;;;13.40;99.90;;;;;;5014001;28;20048;-50
2023/08/16 03:47:11;;;;;;;3.28;2.70;;;13.40;99.90;;;;;;5048609;28;20137;-75
2023/08/16 03:49:36;;;;;;;5.75;2.72;;;13.40;99.90;;;;;;5049848;28;20395;-74
2023/08/16 03:52:03;;;;;;;3.35;2.53;;;13.30;99.90;;;;;;5046800;28;20045;-74
2023/08/16 03:54:29;;;;;;;3.58;3.03;;;13.30;99.90;;;;;;5048342;28;20480;-62
2023/08/16 03:56:56;;;;;;;6.68;2.70;;;13.30;99.90;;;;;;5030371;28;20155;-56
2023/08/16 03:59:22;;;;;;;3.08;2.50;;;13.20;99.90;;;;;;5049399;28;20099;-52
2023/08/16 04:01:48;;;;;;;4.55;2.63;;;13.20;99.90;;;;;;5048033;28;20053;-78
2023/08/16 04:04:14;;;;;;;3.42;2.63;;;13.10;99.90;;;;;;5030821;28;20048;-56
2023/08/16 04:06:39;;;;;;;3.35;2.58;;;13.10;99.90;;;;;;5035697;28;20049;-52
2023/08/16 04:09:06;;;;;;;2.95;2.75;;;13.00;99.90;;;;;;5046222;28;20063;-52
2023/08/16 04:11:32;;;;;;;4.30;2.70;;;13.00;99.90;;;;;;5035906;28;20044;-71
2023/08/16 04:13:57;;;;;;;3.80;2.78;;;13.00;99.90;;;;;;5047743;28;20123;-62
2023/08/16 04:16:23;;;;;;;3.40;2.88;;;13.00;99.90;;;;;;5048248;28;20045;-50
2023/08/16 04:18:53;;;;;;;3.15;2.63;;;13.10;99.90;;;;;;5047611;28;20079;-58
2023/08/16 04:21:19;;;;;;;5.15;2.80;;;13.10;99.90;;;;;;5046918;28;20395;-50
2023/08/16 04:23:45;;;;;;;3.15;2.83;;;13.10;99.90;;;;;;5048358;28;20040;-54
2023/08/16 04:26:10;;;;;;;3.35;3.10;;;13.10;99.90;;;;;;5027722;28;20055;-62
2023/08/16 04:28:36;;;;;;;8.95;2.95;;;13.10;99.90;;;;;;5036818;28;20064;-58
2023/08/16 04:31:03;;;;;;;3.17;2.75;;;13.20;99.90;;;;;;5046124;28;20063;-60
2023/08/16 04:33:29;;;;;;;3.67;2.15;;;13.20;99.90;;;;;;5014036;28;20103;-77
2023/08/16 04:35:55;;;;;;;4.03;2.55;;;13.20;99.90;;;;;;5046441;28;20045;-60
2023/08/16 04:38:20;;;;;;;3.30;2.97;;;13.10;99.90;;;;;;5048207;28;20430;-72
2023/08/16 04:40:49;;;;;;;3.90;3.58;;;13.10;99.90;;;;;;5029742;28;20053;-53
2023/08/16 04:43:15;;;;;;;4.75;3.67;;;13.10;99.90;;;;;;5047632;28;20059;-77
2023/08/16 04:45:41;;;;;;;3.85;3.33;;;13.10;99.90;;;;;;5048594;28;20037;-54
2023/08/16 04:48:08;;;;;;;4.97;3.17;;;13.20;99.90;;;;;;5046990;28;20040;-69
2023/08/16 04:50:34;;;;;;;4.32;3.30;;;13.20;99.90;;;;;;5047976;28;20076;-56
2023/08/16 04:53:00;;;;;;;3.70;3.40;;;13.30;99.90;;;;;;5047134;28;20151;-58
2023/08/16 04:55:26;;;;;;;5.68;3.42;;;13.30;99.90;;;;;;5047821;28;20461;-72
2023/08/16 04:57:52;;;;;;;4.45;3.22;;;13.40;99.90;;;;;;5028743;28;20839;-55
2023/08/16 05:00:19;;;;;;;3.38;3.00;;;13.40;99.90;;;;;;5029517;28;20140;-71
2023/08/16 05:02:45;;;;;;;5.78;2.88;;;13.50;99.90;;;;;;5047659;28;20053;-53
2023/08/16 05:05:11;;;;;;;3.15;2.95;;;13.60;99.90;;;;;;5047215;28;20033;-57
2023/08/16 05:07:38;;;;;;;5.18;3.00;;;13.60;99.90;;;;;;5047333;28;20051;-64
2023/08/16 05:10:03;;;;;;;3.97;3.10;;;13.60;99.90;;;;;;5037332;28;20128;-54
2023/08/16 05:12:29;;;;;;;3.15;2.85;;;13.60;99.90;;;;;;5024612;28;20123;-57
2023/08/16 05:14:55;;;;;;;2.78;2.55;;;13.60;99.90;;;;;;5028644;28;20053;-69
2023/08/16 05:17:21;;;;;;;2.60;2.40;;;13.70;99.90;;;;;;5047396;28;20152;-73
2023/08/16 05:19:47;;;;;;;2.50;2.40;;;13.70;99.90;;;;;;5028480;28;20055;-55
2023/08/16 05:22:12;;;;;;;3.20;2.63;;;13.70;99.90;;;;;;5047377;28;20051;-50
2023/08/16 05:24:38;;;;;;;2.85;2.65;;;13.70;99.90;;;;;;5029338;28;20048;-64
2023/08/16 05:27:04;;;;;;;2.63;2.42;;;13.70;99.90;;;;;;5028839;28;20053;-58
2023/08/16 05:29:29;;;;;;;3.58;2.75;;;13.70;99.90;;;;;;5046829;28;20743;-74
2023/08/16 05:31:56;;;;;;;3.25;2.97;;;13.70;99.90;;;;;;5039373;28;20045;-58
2023/08/16 05:34:22;;;;;;;4.55;3.25;;;13.80;99.90;;;;;;5027550;28;20045;-55
2023/08/16 05:36:49;;;;;;;5.93;3.85;;;13.90;99.90;;;;;;5027492;28;20099;-74
2023/08/16 05:39:15;;;;;;;6.13;3.55;;;13.90;99.90;;;;;;5029468;28;20045;-55
2023/08/16 05:41:41;;;;;;;5.38;4.20;;;14.00;99.90;;;;;;5028649;28;20082;-52
2023/08/16 05:44:07;;;;;;;4.22;3.85;;;14.00;99.90;;;;;;5045711;28;20102;-59
2023/08/16 05:46:33;;;;;;;4.75;4.28;;;14.10;99.90;;;;;;5047047;28;20045;-59
2023/08/16 05:49:00;;;;;;;4.53;4.10;;;14.20;99.90;;;;;;5028349;28;20056;-57
2023/08/16 05:51:27;;;;;;;13.20;4.35;;;14.30;99.90;;;;;;5046913;28;20051;-71
2023/08/16 05:53:53;;;;;;;6.15;4.35;;;14.40;99.90;;;;;;5045821;28;20037;-56
2023/08/16 05:56:18;;;;;;;7.85;4.10;;;14.50;99.90;;;;;;5047094;28;20052;-70
2023/08/16 05:58:45;;;;;;;5.43;4.13;;;14.60;99.90;;;;;;5045714;28;20048;-53
2023/08/16 06:01:10;;;;;;;9.82;4.95;;;14.80;99.90;;;;;;5046470;28;20045;-55
2023/08/16 06:03:36;;;;;;;18.02;5.32;;;14.90;99.90;;;;;;5046807;28;20052;-54
2023/08/16 06:06:02;;;;;;;7.18;5.32;;;15.10;99.90;;;;;;5046351;28;20052;-62
2023/08/16 06:08:28;;;;;;;11.00;5.25;;;15.20;99.90;;;;;;5046934;28;20103;-57
2023/08/16 06:10:53;;;;;;;9.07;5.38;;;15.30;99.90;;;;;;5016108;28;20047;-54
2023/08/16 06:13:19;;;;;;;10.40;6.00;;;15.40;99.90;;;;;;5047195;28;20041;-74
2023/08/16 06:15:45;;;;;;;8.15;5.25;;;15.40;99.90;;;;;;5026986;28;20075;-59
2023/08/16 06:18:10;;;;;;;9.77;5.57;;;15.50;99.90;;;;;;5047212;28;20056;-51
2023/08/16 06:20:36;;;;;;;12.65;6.00;;;15.60;99.90;;;;;;5028125;28;20053;-51
2023/08/16 06:23:02;;;;;;;13.52;6.60;;;15.70;99.90;;;;;;5027959;28;20138;-80
2023/08/16 06:25:29;;;;;;;8.43;6.07;;;15.70;99.90;;;;;;5046687;28;20048;-74
2023/08/16 06:27:54;;;;;;;13.77;6.00;;;15.90;99.90;;;;;;5045699;28;20050;-49
2023/08/16 06:30:20;;;;;;;9.48;6.10;;;15.90;99.90;;;;;;5029033;28;20056;-58
2023/08/16 06:32:46;;;;;;;17.38;7.05;;;16.00;99.90;;;;;;5044802;28;20059;-76
2023/08/16 06:35:11;;;;;;;10.95;6.15;;;16.10;99.90;;;;;;5046986;28;20045;-59
2023/08/16 06:37:39;;;;;;;11.02;6.80;;;16.20;99.90;;;;;;5045443;28;20049;-73
2023/08/16 06:40:05;;;;;;;10.23;6.80;;;16.40;99.90;;;;;;5046298;28;20056;-61
2023/08/16 06:42:34;;;;;;;19.45;6.80;;;16.50;99.90;;;;;;5046042;28;20147;-67
2023/08/16 06:45:00;;;;;;;12.07;5.78;;;16.50;99.90;;;;;;5027856;28;20496;-54
2023/08/16 06:47:26;;;;;;;9.55;5.82;;;16.60;99.90;;;;;;5047325;28;20080;-58
2023/08/16 06:49:52;;;;;;;10.63;6.40;;;16.60;99.90;;;;;;5044707;28;20501;-62
2023/08/16 06:52:18;;;;;;;8.73;5.40;;;16.60;99.90;;;;;;5047100;28;20041;-54
2023/08/16 06:54:44;;;;;;;9.45;5.35;;;16.80;99.90;;;;;;5010627;28;20323;-54
2023/08/16 06:57:11;;;;;;;10.98;5.80;;;16.80;99.90;;;;;;5045161;28;20582;-59
2023/08/16 06:59:38;;;;;;;9.18;5.07;;;16.80;99.90;;;;;;5017658;28;20646;-51
2023/08/16 07:02:04;;;;;;;12.20;4.90;;;16.90;99.90;;;;;;5047771;28;20056;-72
2023/08/16 07:04:33;;;;;;;8.75;4.68;;;16.90;99.90;;;;;;5036369;28;20044;-65
2023/08/16 07:06:59;;;;;;;8.67;3.80;;;17.10;99.90;;;;;;5041946;28;20052;-56
2023/08/16 07:09:27;;;;;;;8.68;4.88;;;17.10;99.90;;;;;;5016306;28;20049;-57
2023/08/16 07:11:53;;;;;;;8.00;4.95;;;17.10;99.90;;;;;;5020310;28;20076;-56
2023/08/16 07:14:18;;;;;;;10.23;4.13;;;17.30;99.90;;;;;;5058327;28;20088;-68
2023/08/16 07:16:44;;;;;;;6.15;3.90;;;17.40;99.90;;;;;;5035603;28;20064;-58
2023/08/16 07:19:10;;;;;;;10.00;3.90;;;17.60;99.90;;;;;;5034492;28;20041;-69
2023/08/16 07:21:35;;;;;;;8.02;3.67;;;17.70;99.90;;;;;;5034893;28;20083;-64
2023/08/16 07:24:02;;;;;;;2.90;2.42;;;17.80;99.90;;;;;;5012275;28;20053;-59
2023/08/16 07:26:27;;;;;;;5.53;2.20;;;17.90;99.90;;;;;;5050302;28;20115;-63
2023/08/16 07:28:53;;;;;;;4.35;3.03;;;17.90;99.90;;;;;;5029169;28;20532;-61
2023/08/16 07:31:19;;;;;;;9.60;3.42;;;17.90;99.90;;;;;;5048082;28;20042;-55
2023/08/16 07:33:44;;;;;;;6.28;3.05;;;18.00;99.90;;;;;;5048181;28;20040;-55
2023/08/16 07:36:11;;;;;;;9.55;4.10;;;18.10;99.90;;;;;;5043018;28;20447;-61
2023/08/16 07:38:36;;;;;;;6.85;3.58;;;18.20;99.90;;;;;;5041013;28;20052;-52
2023/08/16 07:41:02;;;;;;;8.27;3.78;;;18.30;99.90;;;;;;5025230;28;20060;-62
2023/08/16 07:43:29;;;;;;;6.50;3.60;;;18.40;99.90;;;;;;5050989;28;20040;-65
2023/08/16 07:45:54;;;;;;;4.65;3.13;;;18.70;99.90;;;;;;5034372;28;20065;-56
2023/08/16 07:48:21;;;;;;;9.13;3.13;;;18.80;99.90;;;;;;5029292;28;20088;-57
2023/08/16 07:50:48;;;;;;;9.57;2.85;;;18.90;99.90;;;;;;5050140;28;20116;-53
2023/08/16 07:53:13;;;;;;;6.13;2.30;;;19.00;99.90;;;;;;5038636;28;20049;-60
2023/08/16 07:55:39;;;;;;;10.02;3.03;;;19.20;99.90;;;;;;5054857;28;20052;-51
2023/08/16 07:58:05;;;;;;;8.20;3.50;;;19.30;99.90;;;;;;5037268;28;20045;-71
2023/08/16 08:00:31;;;;;;;5.82;2.75;;;19.30;99.90;;;;;;5057461;28;20047;-72
2023/08/16 08:02:57;;;;;;;5.38;2.50;;;19.50;99.90;;;;;;5050626;28;20144;-55
2023/08/16 08:05:23;;;;;;;9.68;2.67;;;19.80;99.90;;;;;;5048398;28;20049;-62
2023/08/16 08:07:51;;;;;;;3.20;1.95;;;20.00;99.90;;;;;;5044123;28;20484;-61
2023/08/16 08:10:17;;;;;;;6.43;2.08;;;20.00;99.90;;;;;;5036694;28;20518;-59
2023/08/16 08:12:47;;;;;;;5.38;2.15;;;20.20;99.90;;;;;;5037233;28;20041;-55
2023/08/16 08:15:13;;;;;;;7.70;2.88;;;20.30;99.90;;;;;;5062222;28;20036;-55
2023/08/16 08:17:40;;;;;;;6.10;2.20;;;20.50;99.90;;;;;;5035670;28;20037;-59
2023/08/16 08:20:08;;;;;;;5.93;1.60;;;20.50;99.90;;;;;;5032261;28;20045;-63
2023/08/16 08:22:34;;;;;;;6.00;1.95;;;20.40;99.90;;;;;;5026396;28;20048;-56
2023/08/16 08:25:00;;;;;;;6.40;2.00;;;20.40;99.90;;;;;;5045988;28;20045;-59
2023/08/16 08:27:26;;;;;;;4.25;2.10;;;20.60;99.90;;;;;;5033897;28;20542;-55
2023/08/16 08:29:52;;;;;;;4.60;1.65;;;21.00;99.90;;;;;;5051128;28;20037;-60
2023/08/16 08:32:17;;;;;;;3.10;1.48;;;21.10;99.90;;;;;;5033217;28;20124;-55
2023/08/16 08:34:43;;;;;;;5.07;1.52;;;21.10;99.90;;;;;;5021382;28;20049;-53
2023/08/16 08:37:09;;;;;;;4.75;1.27;;;20.90;98.10;;;;;;5037515;28;20056;-59
2023/08/16 08:39:35;;;;;;;2.15;1.10;;;20.70;99.90;;;;;;5033655;28;20128;-65
2023/08/16 08:42:07;;;;;;;1.35;1.20;;;20.50;99.90;;;;;;5047924;28;20096;-61
2023/08/16 08:44:33;;;;;;;2.58;1.17;;;20.40;99.90;;;;;;4998184;28;20129;-60
2023/08/16 08:46:59;;;;;;;3.85;1.67;;;20.30;99.90;;;;;;5044485;28;20056;-56
2023/08/16 08:49:25;;;;;;;6.20;1.38;;;20.40;99.90;;;;;;5045983;28;20048;-77
2023/08/16 08:51:53;;;;;;;6.32;1.42;;;20.50;99.90;;;;;;5039674;28;20584;-57
2023/08/16 08:54:18;;;;;;;4.07;1.63;;;20.50;99.90;;;;;;5031618;28;21026;-52
2023/08/16 08:56:48;;;;;;;4.47;1.27;;;20.50;99.90;;;;;;5016180;28;20116;-74
2023/08/16 08:59:14;;;;;;;5.63;1.23;;;20.40;99.90;;;;;;5031877;28;20467;-60
2023/08/16 09:01:40;;;;;;;5.97;1.63;;;20.40;99.90;;;;;;5055441;28;20041;-61
2023/08/16 09:04:06;;;;;;;4.20;1.13;;;20.40;99.00;;;;;;5029875;28;20405;-54
2023/08/16 09:06:33;;;;;;;5.03;1.20;;;20.20;99.90;;;;;;5031567;28;20037;-58
2023/08/16 09:09:00;;;;;;;6.05;0.90;;;20.10;99.90;;;;;;5053032;28;20426;-54
2023/08/16 09:11:28;;;;;;;3.97;0.80;;;20.00;99.90;;;;;;5045197;28;20036;-57
2023/08/16 09:13:55;;;;;;;4.47;1.02;;;19.90;99.90;;;;;;5041864;28;20049;-68
2023/08/16 09:16:21;;;;;;;1.75;0.68;;;19.80;99.90;;;;;;5054594;28;20080;-66
2023/08/16 09:18:48;;;;;;;2.92;1.10;;;19.70;99.90;;;;;;5056367;28;20083;-67
2023/08/16 09:21:16;;;;;;;2.00;0.60;;;19.70;99.90;;;;;;5055187;28;20037;-67
2023/08/16 09:23:42;;;;;;;4.75;0.90;;;19.70;99.90;;;;;;5058005;28;20048;-61
2023/08/16 09:26:15;;;;;;;2.85;0.77;;;19.80;99.90;;;;;;5045827;28;20117;-72
2023/08/16 09:28:41;;;;;;;2.53;1.00;;;20.00;99.90;;;;;;5052473;28;20040;-57
2023/08/16 09:31:07;;;;;;;3.90;1.08;;;20.30;99.90;;;;;;5047922;28;20578;-80
2023/08/16 09:33:38;;;;;;;3.33;0.80;;;20.30;99.90;;;;;;5019080;28;20056;-63
2023/08/16 09:36:04;;;;;;;2.15;0.73;;;20.40;99.90;;;;;;5027770;28;20048;-64
2023/08/16 09:38:32;;;;;;;2.78;0.90;;;20.40;99.90;;;;;;5028724;28;20543;-75
2023/08/16 09:40:58;;;;;;;6.57;1.10;;;20.40;99.90;;;;;;5053913;28;20148;-60
2023/08/16 09:43:24;;;;;;;1.23;0.63;;;20.30;98.50;;;;;;5027745;28;20088;-55
2023/08/16 09:45:52;;;;;;;1.08;0.65;;;20.10;99.90;;;;;;5029489;28;20447;-68
2023/08/16 09:48:22;;;;;;;4.53;1.05;;;20.10;99.90;;;;;;5019415;28;20088;-67
2023/08/16 09:50:49;;;;;;;2.45;0.82;;;20.10;99.90;;;;;;5036936;28;20029;-68
2023/08/16 09:53:15;;;;;;;3.95;0.85;;;20.10;99.90;;;;;;5024557;28;20071;-62
2023/08/16 09:55:42;;;;;;;2.60;0.90;;;20.10;99.90;;;;;;5038669;28;20486;-75
2023/08/16 09:58:09;;;;;;;0.98;0.50;;;20.00;99.90;;;;;;5023853;28;20045;-60
2023/08/16 10:00:35;;;;;;;1.92;0.82;;;20.10;99.90;;;;;;5022360;28;20847;-58
2023/08/16 10:03:01;;;;;;;4.70;0.70;;;20.20;99.90;;;;;;5057631;28;20055;-63
2023/08/16 10:05:27;;;;;;;2.22;0.80;;;20.10;99.90;;;;;;5058197;28;20051;-56
2023/08/16 10:07:59;;;;;;;2.78;1.02;;;20.10;99.90;;;;;;5041250;28;20041;-60
2023/08/16 10:10:25;;;;;;;2.72;0.70;;;20.00;99.90;;;;;;5032281;28;20472;-60
2023/08/16 10:12:53;;;;;;;2.72;0.80;;;19.90;99.90;;;;;;5008723;28;21196;-59
2023/08/16 10:15:19;;;;;;;4.88;0.80;;;19.90;99.90;;;;;;5012025;28;20044;-57
2023/08/16 10:17:50;;;;;;;5.25;0.77;;;19.70;99.90;;;;;;5030859;28;20085;-65
2023/08/16 10:20:24;;;;;;;1.63;0.60;;;19.80;99.90;;;;;;5025080;28;20048;-76
2023/08/16 10:22:58;;;;;;;3.53;0.70;;;20.00;99.90;;;;;;5038641;28;20050;-72
2023/08/16 10:25:27;;;;;;;4.32;1.20;;;20.10;99.90;;;;;;5025726;28;20037;-60
2023/08/16 10:27:58;;;;;;;3.03;1.08;;;20.30;99.90;;;;;;5043267;28;20060;-65
2023/08/16 10:30:25;;;;;;;1.90;0.80;;;20.50;99.90;;;;;;5042378;28;20041;-58
2023/08/16 10:33:02;;;;;;;1.27;0.68;;;20.70;99.90;;;;;;5022820;28;20076;-70
2023/08/16 10:35:28;;;;;;;1.02;0.68;;;20.90;99.90;;;;;;5017316;28;20140;-71
2023/08/16 10:37:57;;;;;;;3.35;0.95;;;21.20;99.90;;;;;;5027714;28;20044;-60
2023/08/16 10:40:24;;;;;;;4.35;0.80;;;21.40;99.90;;;;;;5002523;28;20041;-57
2023/08/16 10:43:05;;;;;;;3.58;0.90;;;21.50;98.70;;;;;;4996875;28;20038;-60
2023/08/16 10:45:35;;;;;;;4.13;0.70;;;21.40;92.00;;;;;;5031018;28;20037;-64
2023/08/16 10:48:14;;;;;;;1.38;0.90;;;21.20;93.00;;;;;;5021985;28;20117;-60
2023/08/16 10:50:41;;;;;;;2.83;0.70;;;21.10;91.90;;;;;;4999436;28;20096;-81
2023/08/16 10:53:08;;;;;;;3.08;1.00;;;21.10;91.40;;;;;;5016230;28;20451;-52
2023/08/16 10:55:34;;;;;;;3.58;1.00;;;21.00;93.80;;;;;;5019375;28;20049;-61
2023/08/16 10:58:00;;;;;;;1.50;0.70;;;21.00;94.70;;;;;;5015894;28;20429;-66
2023/08/16 11:00:34;;;;;;;2.70;0.75;;;21.00;93.80;;;;;;5020976;28;20048;-55
2023/08/16 11:03:01;;;;;;;0.65;0.60;;;20.90;95.50;;;;;;5004059;28;20046;-53
2023/08/16 11:05:33;;;;;;;7.43;1.30;;;20.80;96.00;;;;;;5013718;28;20049;-57
2023/08/16 11:08:03;;;;;;;2.63;0.70;;;20.80;91.00;;;;;;5003881;28;20092;-63
2023/08/16 11:10:34;;;;;;;2.03;0.68;;;20.90;97.40;;;;;;5016252;28;20085;-63
2023/08/16 11:13:02;;;;;;;3.65;0.60;;;21.00;97.00;;;;;;5040733;28;20045;-66
2023/08/16 11:15:28;;;;;;;3.45;0.75;;;21.00;82.80;;;;;;5032312;28;20089;-63
2023/08/16 11:17:55;;;;;;;1.27;0.52;;;21.00;92.10;;;;;;5013917;28;20076;-59
2023/08/16 11:20:21;;;;;;;0.77;0.55;;;20.90;89.50;;;;;;5048806;28;20465;-78
2023/08/16 11:22:47;;;;;;;1.55;0.57;;;20.80;93.20;;;;;;5031289;28;20051;-56
2023/08/16 11:25:12;;;;;;;3.08;0.63;;;20.80;89.70;;;;;;5046855;28;20029;-56
2023/08/16 11:27:38;;;;;;;4.28;1.10;;;20.90;93.20;;;;;;5031587;28;20395;-72
2023/08/16 11:30:05;;;;;;;3.50;0.90;;;21.00;90.10;;;;;;5048776;28;20048;-62
2023/08/16 11:32:37;;;;;;;3.63;0.80;;;21.00;90.10;;;;;;5032132;28;20044;-60
2023/08/16 11:35:08;;;;;;;3.67;0.90;;;20.90;81.40;;;;;;5030085;28;20084;-62
2023/08/16 11:37:35;;;;;;;2.15;0.70;;;20.90;93.20;;;;;;5050101;28;20184;-61
2023/08/16 11:40:07;;;;;;;1.83;0.65;;;20.90;90.40;;;;;;5029963;28;20053;-57
2023/08/16 11:42:33;;;;;;;2.88;0.60;;;21.00;93.20;;;;;;5050103;28;20059;-55
2023/08/16 11:44:59;;;;;;;2.55;0.70;;;21.10;94.60;;;;;;5049119;28;20080;-58
2023/08/16 11:47:25;;;;;;;3.88;0.60;;;21.20;95.90;;;;;;5048802;28;20080;-58
2023/08/16 11:49:51;;;;;;;0.50;0.50;;;21.30;94.50;;;;;;5031339;28;20133;-58
2023/08/16 11:52:24;;;;;;;2.75;0.63;;;21.30;93.00;;;;;;5029591;28;20041;-55
2023/08/16 11:55:07;;;;;;;1.55;0.50;;;21.40;87.40;;;;;;5049476;28;20106;-55
2023/08/16 11:57:42;;;;;;;0.95;0.52;;;21.40;83.80;;;;;;5018426;28;20136;-57
2023/08/16 12:00:08;;;;;;;2.90;1.10;;;21.40;89.90;;;;;;5030517;28;20045;-61
2023/08/16 12:02:36;;;;;;;6.60;0.88;;;21.40;90.50;;;;;;5028745;28;20088;-56
2023/08/16 12:05:09;;;;;;;3.05;0.88;;;21.40;87.90;;;;;;5030756;28;20041;-58
2023/08/16 12:07:48;;;;;;;3.38;0.70;;;21.50;84.20;;;;;;5031668;28;20052;-78
2023/08/16 12:10:40;;;;;;;2.95;0.82;;;21.60;90.90;;;;;;5036880;28;20427;-58
2023/08/16 12:13:14;;;;;;;4.75;0.93;;;21.40;83.20;;;;;;5036085;28;20057;-65
2023/08/16 12:15:41;;;;;;;1.48;0.70;;;21.40;87.50;;;;;;5048791;28;20487;-59
2023/08/16 12:18:07;;;;;;;3.65;0.60;;;21.40;76.70;;;;;;5047532;28;20060;-67
2023/08/16 12:20:33;;;;;;;1.52;0.68;;;21.40;79.90;;;;;;5031065;28;20132;-56
2023/08/16 12:22:58;;;;;;;1.77;0.80;;;21.50;90.00;;;;;;5047485;28;20045;-62
2023/08/16 12:25:25;;;;;;;3.88;0.77;;;21.50;89.60;;;;;;5030825;28;20138;-56
2023/08/16 12:27:50;;;;;;;2.80;0.55;;;21.50;78.30;;;;;;5029391;28;20128;-59
2023/08/16 12:30:16;;;;;;;3.03;0.60;;;21.50;81.50;;;;;;5030149;28;20124;-60
2023/08/16 12:32:42;;;;;;;2.63;0.70;;;21.60;86.50;;;;;;5030206;28;20107;-65
2023/08/16 12:35:08;;;;;;;4.47;0.80;;;21.70;73.30;;;;;;5025499;28;20041;-57
2023/08/16 12:37:39;;;;;;;1.92;0.50;;;21.70;76.60;;;;;;5031127;28;20079;-59
2023/08/16 12:40:09;;;;;;;1.15;0.68;;;21.90;82.30;;;;;;5047153;28;20044;-59
2023/08/16 12:42:40;;;;;;;3.55;0.93;;;21.90;62.30;;;;;;5048942;28;20037;-64
2023/08/16 12:45:06;;;;;;;1.85;0.63;;;21.90;80.80;;;;;;5046847;28;20497;-55